createdAt,value
2022-08-16T00:02:03.385Z,24.77
2022-08-16T00:07:29.299Z,24.52
2022-08-16T00:12:52.783Z,25.10
2022-08-16T00:17:56.569Z,24.81
2022-08-16T00:23:46.280Z,24.47
2022-08-16T00:28:54.585Z,24.73
2022-08-16T00:33:53.096Z,24.79
2022-08-16T00:38:54.137Z,24.85
2022-08-16T00:44:13.885Z,25.21
2022-08-16T00:49:17.618Z,24.91
2022-08-16T00:54:16.177Z,24.87
2022-08-16T00:59:25.477Z,24.95
2022-08-16T01:04:34.378Z,24.93
2022-08-16T01:09:37.425Z,24.84
2022-08-16T01:14:43.786Z,25.04
2022-08-16T01:19:45.116Z,24.60
2022-08-16T01:24:54.083Z,24.77
2022-08-16T01:29:59.879Z,25.01
2022-08-16T01:34:59.046Z,24.60
2022-08-16T01:39:59.635Z,24.93
2022-08-16T01:44:57.639Z,24.92
2022-08-16T01:50:42.631Z,24.77
2022-08-16T01:55:23.413Z,24.98
2022-08-16T02:00:55.007Z,24.99
2022-08-16T02:05:57.346Z,24.53
2022-08-16T02:10:58.154Z,24.45
2022-08-16T02:15:55.746Z,24.94
2022-08-16T02:21:10.077Z,24.52
2022-08-16T02:26:09.153Z,24.81
2022-08-16T02:31:17.730Z,24.71
2022-08-16T02:36:48.010Z,24.74
2022-08-16T02:41:44.845Z,24.39
2022-08-16T02:46:53.768Z,24.65
2022-08-16T02:51:53.501Z,24.72
2022-08-16T02:56:54.372Z,24.61
2022-08-16T03:02:08.257Z,24.78
2022-08-16T03:07:08.153Z,24.61
2022-08-16T03:12:30.442Z,24.62
2022-08-16T03:17:37.170Z,24.25
2022-08-16T03:22:56.831Z,24.65
2022-08-16T03:27:55.589Z,24.33
2022-08-16T03:32:58.002Z,24.55
2022-08-16T03:38:34.055Z,24.65
2022-08-16T03:43:51.618Z,24.12
2022-08-16T03:48:55.223Z,24.46
2022-08-16T03:54:01.096Z,24.80
2022-08-16T03:59:06.027Z,24.51
2022-08-16T04:04:12.818Z,24.61
2022-08-16T04:09:24.067Z,24.61
2022-08-16T04:14:38.115Z,25.25
2022-08-16T04:20:48.466Z,24.93
2022-08-16T04:25:49.426Z,25.31
2022-08-16T04:30:53.817Z,25.67
2022-08-16T04:35:55.070Z,25.53
2022-08-16T04:42:00.083Z,25.98
2022-08-16T04:47:35.414Z,26.03
2022-08-16T04:52:50.255Z,26.28
2022-08-16T04:58:03.162Z,26.09
2022-08-16T05:04:01.868Z,26.22
2022-08-16T05:09:16.467Z,26.28
2022-08-16T05:15:02.145Z,26.70
2022-08-16T05:20:38.964Z,26.51
2022-08-16T05:25:47.864Z,26.79
2022-08-16T05:30:50.891Z,27.38
2022-08-16T05:36:03.751Z,28.81
2022-08-16T05:41:13.958Z,31.21
2022-08-16T05:46:30.395Z,33.73
2022-08-16T05:57:47.773Z,38.55
2022-08-16T06:02:54.519Z,40.11
2022-08-16T06:08:31.864Z,41.52
2022-08-16T06:13:41.953Z,42.32
2022-08-16T06:18:51.199Z,43.52
2022-08-16T06:24:01.144Z,44.42
2022-08-16T06:29:50.003Z,45.33
2022-08-16T06:34:55.739Z,45.82
2022-08-16T06:40:22.285Z,46.13
2022-08-16T06:46:38.810Z,46.58
2022-08-16T06:52:57.915Z,46.78
2022-08-16T06:58:21.869Z,46.98
2022-08-16T07:03:55.012Z,47.75
2022-08-16T07:09:41.916Z,48.35
2022-08-16T07:14:41.513Z,48.85
2022-08-16T07:25:59.852Z,49.93
2022-08-16T07:31:05.720Z,49.82
2022-08-16T07:36:59.007Z,50.08
2022-08-16T07:42:28.583Z,50.44
2022-08-16T07:48:00.501Z,49.98
2022-08-16T07:53:18.766Z,50.18
2022-08-16T07:58:39.469Z,50.17
2022-08-16T08:04:08.671Z,50.25
2022-08-16T08:09:35.896Z,49.80
2022-08-16T08:14:59.247Z,50.17
2022-08-16T08:20:00.615Z,50.16
2022-08-16T08:25:14.256Z,50.32
2022-08-16T08:30:50.636Z,50.59
2022-08-16T08:35:56.616Z,50.75
2022-08-16T08:40:58.056Z,50.80
2022-08-16T08:52:47.854Z,50.48
2022-08-16T08:58:00.004Z,50.54
2022-08-16T09:03:28.013Z,50.86
2022-08-16T09:08:32.073Z,50.92
2022-08-16T09:13:37.536Z,51.10
2022-08-16T09:18:59.658Z,51.00
2022-08-16T09:24:12.111Z,50.80
2022-08-16T09:29:44.472Z,51.09
2022-08-16T09:34:47.800Z,51.13
2022-08-16T09:39:50.024Z,50.92
2022-08-16T09:45:11.026Z,50.44
2022-08-16T09:55:44.205Z,49.87
2022-08-16T10:00:45.337Z,49.87
2022-08-16T10:05:46.337Z,49.86
2022-08-16T10:11:06.886Z,49.22
2022-08-16T10:21:08.944Z,49.03
2022-08-16T10:27:17.381Z,48.77
2022-08-16T10:31:44.241Z,48.61
2022-08-16T10:36:42.142Z,48.47
2022-08-16T10:41:42.639Z,47.53
2022-08-16T10:46:43.334Z,46.61
2022-08-16T10:52:03.105Z,45.09
2022-08-16T10:57:04.867Z,43.57
2022-08-16T11:02:59.864Z,42.74
2022-08-16T11:12:43.878Z,41.44
2022-08-16T11:17:44.989Z,41.34
2022-08-16T11:22:59.156Z,40.56
2022-08-16T11:28:00.590Z,40.02
2022-08-16T11:33:01.182Z,39.22
2022-08-16T11:38:06.134Z,38.93
2022-08-16T11:43:36.948Z,39.34
2022-08-16T11:48:47.248Z,39.20
2022-08-16T11:53:47.154Z,38.91
2022-08-16T11:58:51.480Z,39.04
2022-08-16T12:03:57.871Z,39.09
2022-08-16T12:09:02.106Z,38.91
2022-08-16T12:14:01.448Z,38.66
2022-08-16T12:19:04.873Z,38.54
2022-08-16T12:24:05.276Z,38.33
2022-08-16T12:29:03.450Z,38.25
2022-08-16T12:34:00.927Z,37.94
2022-08-16T12:38:59.132Z,38.17
2022-08-16T12:44:01.081Z,38.34
2022-08-16T12:49:00.708Z,38.23
2022-08-16T12:54:08.498Z,38.19
2022-08-16T12:59:09.049Z,38.17
2022-08-16T13:04:12.167Z,38.12
2022-08-16T13:09:19.978Z,37.80
2022-08-16T13:14:30.855Z,37.72
2022-08-16T13:19:49.778Z,37.53
2022-08-16T13:24:50.192Z,37.62
2022-08-16T13:29:58.085Z,37.23
2022-08-16T13:34:59.871Z,37.07
2022-08-16T13:39:59.058Z,37.29
2022-08-16T13:44:58.597Z,37.56
2022-08-16T13:49:56.340Z,37.66
2022-08-16T13:54:56.920Z,37.96
2022-08-16T14:00:04.578Z,38.50
2022-08-16T14:05:11.622Z,38.40
2022-08-16T14:10:12.217Z,38.49
2022-08-16T14:15:15.539Z,38.20
2022-08-16T14:20:19.120Z,37.70
2022-08-16T14:25:19.111Z,37.69
2022-08-16T14:30:19.966Z,37.50
2022-08-16T14:35:36.724Z,37.45
2022-08-16T14:40:42.994Z,37.37
2022-08-16T14:45:44.839Z,37.23
2022-08-16T14:50:58.225Z,36.94
2022-08-16T14:55:56.144Z,37.03
2022-08-16T15:01:01.700Z,36.99
2022-08-16T15:06:17.334Z,36.96
2022-08-16T15:11:44.906Z,36.86
2022-08-16T15:16:46.068Z,36.61
2022-08-16T15:21:44.877Z,36.47
2022-08-16T15:26:45.087Z,36.35
2022-08-16T15:31:49.845Z,35.97
2022-08-16T15:37:10.621Z,35.89
2022-08-16T15:42:11.218Z,35.83
2022-08-16T15:47:35.227Z,35.70
2022-08-16T15:52:36.886Z,35.51
2022-08-16T15:57:48.334Z,35.37
2022-08-16T16:02:49.540Z,35.65
2022-08-16T16:07:56.217Z,35.61
2022-08-16T16:13:08.871Z,35.50
2022-08-16T16:18:18.844Z,34.94
2022-08-16T16:23:30.432Z,34.82
2022-08-16T16:29:05.074Z,35.17
2022-08-16T16:34:04.751Z,35.09
2022-08-16T16:39:09.939Z,34.84
2022-08-16T16:44:09.594Z,34.83
2022-08-16T16:49:18.823Z,34.52
2022-08-16T16:54:27.816Z,34.82
2022-08-16T16:59:30.483Z,34.74
2022-08-16T17:04:31.703Z,34.45
2022-08-16T17:09:30.890Z,34.00
2022-08-16T17:14:49.554Z,33.85
2022-08-16T17:19:48.767Z,33.67
2022-08-16T17:24:56.342Z,33.22
2022-08-16T17:29:54.131Z,33.27
2022-08-16T17:34:52.872Z,33.08
2022-08-16T17:39:59.917Z,32.35
2022-08-16T17:45:04.370Z,32.37
2022-08-16T17:50:07.128Z,32.37
2022-08-16T17:55:27.687Z,31.97
2022-08-16T18:00:31.219Z,32.02
2022-08-16T18:05:28.986Z,32.31
2022-08-16T18:10:33.407Z,32.26
2022-08-16T18:15:34.061Z,32.17
2022-08-16T18:20:51.912Z,32.10
2022-08-16T18:25:53.862Z,31.74
2022-08-16T18:30:52.888Z,31.60
2022-08-16T18:35:57.105Z,31.60
2022-08-16T18:40:55.819Z,31.38
2022-08-16T18:45:54.719Z,31.47
2022-08-16T18:51:00.009Z,31.46
2022-08-16T18:56:11.826Z,31.37
2022-08-16T19:01:09.139Z,31.13
2022-08-16T19:06:14.926Z,31.14
2022-08-16T19:11:23.734Z,30.73
2022-08-16T19:16:26.192Z,30.62
2022-08-16T19:21:24.026Z,30.35
2022-08-16T19:26:26.004Z,30.15
2022-08-16T19:31:28.014Z,29.91
2022-08-16T19:36:30.954Z,30.24
2022-08-16T19:41:36.035Z,30.05
2022-08-16T19:46:35.849Z,30.21
2022-08-16T19:51:34.127Z,30.15
2022-08-16T19:56:31.951Z,30.11
2022-08-16T20:01:30.187Z,30.05
2022-08-16T20:06:37.854Z,29.66
2022-08-16T20:11:38.331Z,29.08
2022-08-16T20:16:35.760Z,29.57
2022-08-16T20:21:35.797Z,29.54
2022-08-16T20:26:34.120Z,29.48
2022-08-16T20:31:35.918Z,29.48
2022-08-16T20:36:33.268Z,29.18
2022-08-16T20:41:35.302Z,29.38
2022-08-16T20:46:33.157Z,29.28
2022-08-16T20:51:47.003Z,29.31
2022-08-16T20:56:49.120Z,29.25
2022-08-16T21:01:50.065Z,29.23
2022-08-16T21:06:54.283Z,28.99
2022-08-16T21:11:53.718Z,28.94
2022-08-16T21:16:51.811Z,29.03
2022-08-16T21:21:49.254Z,28.96
2022-08-16T21:26:56.135Z,28.62
2022-08-16T21:31:57.070Z,28.72
2022-08-16T21:36:54.868Z,28.47
2022-08-16T21:41:51.811Z,28.62
2022-08-16T21:46:48.918Z,28.59
2022-08-16T21:51:47.921Z,28.05
2022-08-16T21:56:45.039Z,27.93
2022-08-16T22:01:46.292Z,28.35
2022-08-16T22:06:43.951Z,28.46
2022-08-16T22:11:42.682Z,28.12
2022-08-16T22:16:43.056Z,28.34
2022-08-16T22:21:41.316Z,28.17
2022-08-16T22:26:43.108Z,28.09
2022-08-16T22:31:42.687Z,28.17
2022-08-16T22:36:40.424Z,27.83
2022-08-16T22:41:42.356Z,27.73
2022-08-16T22:46:41.431Z,27.74
2022-08-16T22:51:40.728Z,27.95
2022-08-16T22:56:37.788Z,27.90
2022-08-16T23:01:35.225Z,27.71
2022-08-16T23:06:34.351Z,27.84
2022-08-16T23:11:32.323Z,27.63
2022-08-16T23:16:33.753Z,27.33
2022-08-16T23:21:38.126Z,27.73
2022-08-16T23:26:46.830Z,27.58
2022-08-16T23:31:45.947Z,27.65
2022-08-16T23:36:46.495Z,27.81
2022-08-16T23:41:43.996Z,27.03
2022-08-16T23:46:41.650Z,27.46
2022-08-16T23:51:38.802Z,27.82
2022-08-16T23:56:40.877Z,27.46
